Time;durP1;ratioP1;P1;durP2;ratioP2;P2;SDS_P1;SDS_P2;PMS_P1;PMS_P2;Temp;Humidity;BMP_temperature;BMP_pressure;BME280_temperature;BME280_humidity;BME280_pressure;Samples;Min_cycle;Max_cycle;Signal;HPM_P1;HPM_P2
2022/10/24 00:00:43;;;;;;;18.92;10.60;;;;;;;14.38;62.31;95373.38;4193073;28;20131;-63
2022/10/24 00:02:45;;;;;;;18.30;11.35;;;;;;;14.39;62.04;95367.94;4180663;28;20052;-62
2022/10/24 00:04:47;;;;;;;19.38;11.13;;;;;;;14.44;62.07;95362.16;4190621;28;20080;-63
2022/10/24 00:06:48;;;;;;;15.98;10.98;;;;;;;14.42;62.02;95364.13;4180140;28;20136;-62
2022/10/24 00:08:50;;;;;;;22.50;12.60;;;;;;;14.37;62.28;95358.53;4188529;28;20080;-62
2022/10/24 00:10:52;;;;;;;19.63;11.68;;;;;;;14.29;62.18;95352.28;4184872;28;20095;-62
2022/10/24 00:12:54;;;;;;;18.77;11.40;;;;;;;14.23;62.45;95360.03;4193207;28;20128;-62
2022/10/24 00:14:56;;;;;;;18.83;11.35;;;;;;;14.18;62.73;95357.88;4196454;28;20495;-61
2022/10/24 00:16:57;;;;;;;20.73;12.20;;;;;;;14.00;63.30;95354.59;4192055;28;20087;-62
2022/10/24 00:18:59;;;;;;;18.85;11.88;;;;;;;13.86;63.49;95348.97;4196547;28;20135;-62
2022/10/24 00:21:02;;;;;;;16.98;11.13;;;;;;;13.84;63.51;95350.13;4196182;28;20059;-64
2022/10/24 00:23:03;;;;;;;17.25;11.90;;;;;;;13.84;63.72;95355.41;4195739;28;20064;-62
2022/10/24 00:25:06;;;;;;;16.35;10.68;;;;;;;13.72;63.93;95349.59;4196109;28;20091;-62
2022/10/24 00:27:08;;;;;;;17.10;10.88;;;;;;;13.69;64.30;95349.94;4195899;28;20131;-63
2022/10/24 00:29:10;;;;;;;19.95;11.50;;;;;;;13.65;64.42;95343.34;4194910;28;20102;-63
2022/10/24 00:31:14;;;;;;;17.77;10.82;;;;;;;13.63;64.77;95346.16;4194237;28;20041;-63
2022/10/24 00:33:16;;;;;;;20.27;11.93;;;;;;;13.60;64.42;95341.22;4195875;28;20051;-63
2022/10/24 00:35:18;;;;;;;16.30;11.65;;;;;;;13.58;64.88;95347.63;4195643;28;20045;-63
2022/10/24 00:37:20;;;;;;;18.48;12.10;;;;;;;13.59;64.92;95351.91;4196379;28;20132;-63
2022/10/24 00:39:26;;;;;;;14.43;10.02;;;;;;;13.43;65.41;95342.97;4196517;28;20067;-62
2022/10/24 00:41:33;;;;;;;17.58;9.85;;;;;;;13.19;66.26;95346.34;4180446;28;20068;-61
2022/10/24 00:43:35;;;;;;;14.02;9.65;;;;;;;13.08;66.61;95344.00;4192729;28;20173;-63
2022/10/24 00:45:45;;;;;;;15.52;9.30;;;;;;;12.96;67.72;95342.63;4187488;28;20071;-63
2022/10/24 00:47:46;;;;;;;15.05;9.52;;;;;;;13.04;67.77;95350.56;4189778;28;20056;-64
2022/10/24 00:49:59;;;;;;;15.77;9.43;;;;;;;13.14;67.24;95345.16;4191576;28;20174;-62
2022/10/24 00:52:03;;;;;;;16.27;9.93;;;;;;;13.25;66.45;95350.13;4178937;28;20329;-63
2022/10/24 00:54:08;;;;;;;17.38;10.60;;;;;;;13.31;66.36;95344.25;4195207;28;20046;-63
2022/10/24 00:56:11;;;;;;;14.60;9.95;;;;;;;13.38;65.96;95345.28;4193842;28;20044;-63
2022/10/24 00:58:14;;;;;;;13.15;10.18;;;;;;;13.40;65.97;95339.84;4182521;28;20128;-62
2022/10/24 01:00:20;;;;;;;14.07;10.02;;;;;;;13.42;65.97;95348.41;4176622;28;20141;-60
2022/10/24 01:02:22;;;;;;;14.55;9.73;;;;;;;13.41;65.80;95350.22;4182536;28;20478;-61
2022/10/24 01:04:24;;;;;;;16.48;9.48;;;;;;;13.41;65.88;95350.22;4195719;28;20080;-63
2022/10/24 01:06:32;;;;;;;14.70;9.57;;;;;;;13.41;65.83;95344.13;4191965;28;20529;-63
2022/10/24 01:08:56;;;;;;;17.08;10.55;;;;;;;13.41;66.04;95342.31;4193538;28;20050;-63
2022/10/24 01:11:07;;;;;;;17.58;11.32;;;;;;;13.38;66.10;95345.28;4193748;28;20058;-61
2022/10/24 01:13:11;;;;;;;16.92;10.98;;;;;;;13.39;65.70;95354.00;4189688;28;20159;-63
2022/10/24 01:15:19;;;;;;;20.80;12.40;;;;;;;13.37;65.27;95354.16;4179748;28;20044;-62
2022/10/24 01:17:26;;;;;;;17.63;11.48;;;;;;;13.23;65.31;95352.13;4190663;28;20444;-61
2022/10/24 01:19:46;;;;;;;15.55;10.75;;;;;;;13.16;65.71;95346.63;4190439;28;20080;-60
2022/10/24 01:21:53;;;;;;;17.88;11.65;;;;;;;13.14;66.12;95348.59;4182506;28;20144;-63
2022/10/24 01:24:12;;;;;;;17.92;11.90;;;;;;;13.14;65.63;95348.59;4189318;28;20091;-63
2022/10/24 01:27:11;;;;;;;21.80;12.07;;;;;;;13.18;65.53;95354.38;4186480;28;20128;-63
2022/10/24 01:29:39;;;;;;;15.55;10.95;;;;;;;13.17;65.23;95355.38;4159948;28;20049;-63
2022/10/24 01:31:51;;;;;;;20.88;11.07;;;;;;;13.21;64.99;95354.91;4172705;28;20718;-63
2022/10/24 01:33:56;;;;;;;18.25;12.05;;;;;;;13.26;64.98;95351.78;4139007;28;20080;-63
2022/10/24 01:36:11;;;;;;;20.52;12.25;;;;;;;13.25;65.36;95350.13;4157063;28;20049;-64
2022/10/24 01:38:31;;;;;;;17.45;11.18;;;;;;;13.28;65.32;95353.31;4159850;28;20490;-63
2022/10/24 01:40:49;;;;;;;19.85;12.82;;;;;;;13.30;64.63;95353.16;4164422;28;20055;-62
2022/10/24 01:42:52;;;;;;;18.65;12.23;;;;;;;13.29;64.49;95352.34;4155537;28;20061;-64
2022/10/24 01:44:56;;;;;;;14.88;10.10;;;;;;;13.36;64.31;95347.25;4159852;28;20586;-64
2022/10/24 01:47:02;;;;;;;13.25;10.55;;;;;;;13.37;63.79;95346.25;4171166;28;20055;-64
2022/10/24 01:49:15;;;;;;;13.27;9.90;;;;;;;13.40;63.99;95348.59;4156925;28;20383;-64
2022/10/24 01:51:18;;;;;;;16.20;10.60;;;;;;;13.45;64.01;95341.00;4172647;28;20132;-64
2022/10/24 01:53:21;;;;;;;16.85;10.57;;;;;;;13.43;63.78;95340.34;4158725;28;20048;-62
2022/10/24 01:55:25;;;;;;;16.80;10.27;;;;;;;13.41;63.72;95338.88;4159553;28;20053;-62
2022/10/24 01:57:28;;;;;;;17.58;9.73;;;;;;;13.39;64.25;95336.38;4159795;28;20046;-62
2022/10/24 01:59:30;;;;;;;17.13;10.38;;;;;;;13.40;64.18;95337.22;4176415;28;20857;-62
2022/10/24 02:01:33;;;;;;;15.63;10.25;;;;;;;13.40;63.95;95342.47;4177312;28;20516;-63
2022/10/24 02:03:44;;;;;;;14.38;9.13;;;;;;;13.37;64.07;95340.16;4178623;28;20448;-64
2022/10/24 02:05:50;;;;;;;15.30;9.48;;;;;;;13.32;64.09;95343.28;4182992;28;20044;-62
2022/10/24 02:07:55;;;;;;;13.48;9.15;;;;;;;13.28;64.31;95340.16;4180991;28;20060;-61
2022/10/24 02:10:02;;;;;;;13.60;9.07;;;;;;;13.22;64.06;95351.28;4178319;28;20103;-63
2022/10/24 02:12:06;;;;;;;14.77;10.27;;;;;;;13.05;64.99;95344.31;4184268;28;20158;-64
2022/10/24 02:14:15;;;;;;;16.60;9.52;;;;;;;13.02;64.53;95350.72;4193941;28;20759;-62
2022/10/24 02:16:18;;;;;;;20.88;9.55;;;;;;;13.05;65.20;95352.19;4179284;28;20107;-63
2022/10/24 02:18:20;;;;;;;15.05;10.05;;;;;;;12.99;64.55;95337.03;4181585;28;20076;-62
2022/10/24 02:20:36;;;;;;;13.65;9.93;;;;;;;12.91;64.76;95343.94;4187221;28;20049;-62
2022/10/24 02:22:49;;;;;;;17.10;10.30;;;;;;;12.87;65.36;95344.41;4183565;28;20048;-62
2022/10/24 02:25:02;;;;;;;15.52;9.98;;;;;;;12.77;64.74;95341.06;4193653;28;20102;-62
2022/10/24 02:27:15;;;;;;;13.77;9.87;;;;;;;12.68;64.80;95348.91;4178617;28;20053;-63
2022/10/24 02:29:27;;;;;;;13.73;9.30;;;;;;;12.60;64.68;95340.13;4183790;28;20071;-63
2022/10/24 02:31:33;;;;;;;13.93;9.50;;;;;;;12.27;65.69;95346.00;4179973;28;20052;-62
2022/10/24 02:33:35;;;;;;;16.63;11.23;;;;;;;12.22;66.34;95350.91;4179268;28;20136;-63
2022/10/24 02:35:38;;;;;;;14.27;9.68;;;;;;;12.21;66.32;95346.63;4193602;28;20049;-62
2022/10/24 02:37:47;;;;;;;18.10;9.95;;;;;;;11.99;66.66;95344.50;4193598;28;20103;-63
2022/10/24 02:39:49;;;;;;;13.07;9.40;;;;;;;11.90;67.38;95348.03;4193194;28;20048;-62
2022/10/24 02:41:53;;;;;;;12.55;9.43;;;;;;;11.82;67.42;95336.44;4187652;28;20049;-62
2022/10/24 02:43:55;;;;;;;15.30;9.55;;;;;;;11.66;67.68;95346.81;4180011;28;20099;-63
2022/10/24 02:45:58;;;;;;;14.48;10.10;;;;;;;11.60;68.49;95344.78;4192932;28;20596;-64
2022/10/24 02:48:02;;;;;;;19.70;10.60;;;;;;;11.67;68.28;95340.56;4193679;28;20508;-63
2022/10/24 02:50:04;;;;;;;16.23;10.27;;;;;;;11.83;67.84;95347.75;4187174;28;20044;-63
2022/10/24 02:52:06;;;;;;;14.88;10.15;;;;;;;11.74;67.91;95344.22;4193008;28;20143;-61
2022/10/24 02:54:09;;;;;;;17.42;10.45;;;;;;;11.66;67.97;95349.44;4187687;28;20562;-62
2022/10/24 02:56:10;;;;;;;15.83;10.17;;;;;;;11.79;68.06;95334.13;4196307;28;20402;-61
2022/10/24 02:58:12;;;;;;;13.02;9.90;;;;;;;11.92;67.80;95340.84;4189282;28;20056;-62
2022/10/24 03:00:14;;;;;;;15.40;9.35;;;;;;;12.02;67.46;95336.28;4191043;28;20071;-62
2022/10/24 03:02:16;;;;;;;20.77;10.13;;;;;;;12.12;67.20;95337.03;4195078;28;20056;-61
2022/10/24 03:04:17;;;;;;;15.38;9.30;;;;;;;12.16;66.51;95341.00;4181940;28;20141;-62
2022/10/24 03:06:19;;;;;;;15.23;9.77;;;;;;;12.12;66.28;95344.91;4190310;28;20044;-62
2022/10/24 03:08:21;;;;;;;14.85;9.07;;;;;;;12.20;66.11;95342.34;4197072;28;20562;-62
2022/10/24 03:10:22;;;;;;;13.70;9.48;;;;;;;12.31;66.27;95335.22;4193968;28;20060;-63
2022/10/24 03:12:25;;;;;;;18.48;9.30;;;;;;;12.40;65.77;95344.78;4181522;28;20048;-62
2022/10/24 03:14:27;;;;;;;15.82;9.73;;;;;;;12.47;65.76;95335.31;4181230;28;20132;-62
2022/10/24 03:16:28;;;;;;;16.98;9.77;;;;;;;12.52;65.31;95333.06;4179486;28;20119;-64
2022/10/24 03:18:30;;;;;;;13.02;8.88;;;;;;;12.57;65.04;95340.47;4184113;28;20092;-62
2022/10/24 03:20:32;;;;;;;13.90;9.43;;;;;;;12.61;65.23;95342.63;4197528;28;20074;-62
2022/10/24 03:22:33;;;;;;;14.50;9.90;;;;;;;12.59;64.91;95335.88;4187806;28;20080;-63
2022/10/24 03:24:35;;;;;;;13.75;10.00;;;;;;;12.61;65.07;95339.19;4194081;28;20102;-63
2022/10/24 03:26:45;;;;;;;13.85;9.95;;;;;;;12.61;64.79;95329.47;4180978;28;20044;-63
2022/10/24 03:28:46;;;;;;;12.52;9.55;;;;;;;12.61;64.92;95328.66;4189175;28;20489;-63
2022/10/24 03:30:48;;;;;;;12.85;8.95;;;;;;;12.62;64.85;95331.13;4184168;28;20053;-63
2022/10/24 03:32:50;;;;;;;21.25;10.13;;;;;;;12.59;64.90;95341.94;4181842;28;20053;-62
2022/10/24 03:34:51;;;;;;;17.10;9.23;;;;;;;12.67;65.18;95330.66;4185210;28;20095;-61
2022/10/24 03:36:53;;;;;;;13.88;9.85;;;;;;;12.69;64.81;95332.16;4189475;28;20057;-60
2022/10/24 03:38:55;;;;;;;15.13;9.88;;;;;;;12.76;65.22;95331.53;4181544;28;20052;-63
2022/10/24 03:40:56;;;;;;;14.38;9.48;;;;;;;12.76;64.62;95324.47;4180846;28;20509;-62
2022/10/24 03:42:58;;;;;;;17.50;10.35;;;;;;;12.76;64.69;95336.78;4185711;28;20128;-63
2022/10/24 03:45:00;;;;;;;16.00;10.35;;;;;;;12.77;65.00;95330.53;4181655;28;20132;-63
2022/10/24 03:47:02;;;;;;;13.18;9.32;;;;;;;12.77;64.85;95331.34;4180754;28;20045;-64
2022/10/24 03:49:03;;;;;;;15.23;9.82;;;;;;;12.78;65.02;95333.03;4186250;28;20052;-63
2022/10/24 03:51:05;;;;;;;15.20;8.88;;;;;;;12.81;64.95;95332.69;4188437;28;20060;-63
2022/10/24 03:53:07;;;;;;;16.80;9.35;;;;;;;12.80;65.17;95344.22;4181415;28;20664;-63
2022/10/24 03:55:09;;;;;;;21.23;9.82;;;;;;;12.76;64.98;95334.16;4182737;28;20106;-62
2022/10/24 03:57:11;;;;;;;18.95;9.85;;;;;;;12.70;65.34;95331.16;4195501;28;20076;-63
2022/10/24 03:59:13;;;;;;;15.07;9.30;;;;;;;12.74;65.37;95331.69;4196930;28;20051;-62
2022/10/24 04:01:17;;;;;;;19.88;9.77;;;;;;;12.73;65.45;95330.03;4194915;28;20044;-62
2022/10/24 04:03:18;;;;;;;13.60;9.50;;;;;;;12.74;65.72;95331.69;4196936;28;20508;-63
2022/10/24 04:05:20;;;;;;;13.70;9.70;;;;;;;12.75;65.77;95335.13;4196317;28;20565;-63
2022/10/24 04:07:22;;;;;;;15.75;10.07;;;;;;;12.76;65.72;95332.34;4196538;28;20132;-62
2022/10/24 04:09:24;;;;;;;16.13;10.23;;;;;;;12.77;65.45;95330.53;4197222;28;20508;-60
2022/10/24 04:11:26;;;;;;;15.05;9.73;;;;;;;12.78;65.49;95321.69;4195942;28;20098;-60
2022/10/24 04:13:28;;;;;;;15.35;9.60;;;;;;;12.77;65.55;95325.28;4181530;28;20061;-62
2022/10/24 04:15:30;;;;;;;15.85;9.98;;;;;;;12.78;65.41;95316.44;4184066;28;20857;-59
2022/10/24 04:17:31;;;;;;;17.42;9.55;;;;;;;12.79;65.80;95312.81;4192802;28;20496;-60
2022/10/24 04:19:33;;;;;;;18.52;9.65;;;;;;;12.79;65.71;95316.25;4184722;28;20630;-59
2022/10/24 04:21:35;;;;;;;15.73;10.18;;;;;;;12.80;65.71;95317.06;4194796;28;20056;-60
2022/10/24 04:23:39;;;;;;;15.50;9.30;;;;;;;12.75;65.90;95321.97;4190921;28;20139;-57
2022/10/24 04:25:42;;;;;;;16.90;8.93;;;;;;;12.75;66.01;95321.97;4180061;28;20049;-58
2022/10/24 04:27:44;;;;;;;14.60;9.30;;;;;;;12.77;65.91;95317.41;4193270;28;20055;-58
2022/10/24 04:29:46;;;;;;;15.02;9.02;;;;;;;12.74;66.02;95323.78;4196201;28;20148;-57
2022/10/24 04:31:48;;;;;;;22.42;11.55;;;;;;;12.45;66.14;95332.00;4195206;28;20390;-58
2022/10/24 04:33:50;;;;;;;23.73;11.32;;;;;;;12.42;66.76;95334.94;4195875;28;20183;-58
2022/10/24 04:35:51;;;;;;;22.60;12.77;;;;;;;12.25;66.99;95337.47;4194516;28;20091;-57
2022/10/24 04:37:53;;;;;;;23.02;12.50;;;;;;;11.96;67.89;95340.38;4195360;28;20047;-59
2022/10/24 04:39:55;;;;;;;18.35;12.13;;;;;;;11.97;68.26;95339.38;4194718;28;20054;-60
2022/10/24 04:41:56;;;;;;;18.90;10.68;;;;;;;12.02;67.80;95339.78;4181732;28;20097;-58
2022/10/24 04:43:58;;;;;;;18.80;10.65;;;;;;;12.12;67.86;95339.66;4178601;28;20132;-58
2022/10/24 04:46:01;;;;;;;19.77;11.70;;;;;;;12.22;67.51;95343.03;4181421;28;20057;-57
2022/10/24 04:48:03;;;;;;;16.75;10.18;;;;;;;12.29;67.08;95336.19;4196387;28;20076;-57
2022/10/24 04:50:05;;;;;;;18.98;9.90;;;;;;;12.36;67.10;95339.00;4196021;28;20056;-56
2022/10/24 04:52:06;;;;;;;19.30;10.70;;;;;;;12.38;66.86;95342.31;4196243;28;20139;-59
2022/10/24 04:54:08;;;;;;;20.63;10.90;;;;;;;12.32;67.04;95344.72;4196343;28;20484;-59
2022/10/24 04:56:10;;;;;;;22.00;11.10;;;;;;;12.09;67.52;95345.25;4185419;28;20407;-57
2022/10/24 04:58:12;;;;;;;18.67;10.07;;;;;;;11.75;68.89;95345.91;4196293;28;20053;-56
2022/10/24 05:00:14;;;;;;;24.92;10.73;;;;;;;11.51;69.99;95350.91;4193792;28;20076;-58
2022/10/24 05:02:15;;;;;;;22.40;11.50;;;;;;;11.47;70.57;95343.34;4195362;28;20209;-58
2022/10/24 05:04:17;;;;;;;26.23;11.95;;;;;;;11.65;70.26;95347.78;4195825;28;20051;-57
2022/10/24 05:06:19;;;;;;;24.95;10.65;;;;;;;11.77;69.74;95343.94;4195886;28;20098;-57
2022/10/24 05:08:20;;;;;;;21.30;10.80;;;;;;;11.81;69.18;95344.47;4196042;28;20322;-58
2022/10/24 05:10:22;;;;;;;23.65;10.45;;;;;;;11.83;69.44;95350.38;4183147;28;20052;-59
2022/10/24 05:12:24;;;;;;;20.75;11.40;;;;;;;11.91;69.26;95347.88;4196161;28;20056;-60
2022/10/24 05:14:26;;;;;;;21.08;12.98;;;;;;;12.05;68.88;95341.25;4185643;28;20128;-60
2022/10/24 05:16:27;;;;;;;29.83;11.80;;;;;;;12.09;68.49;95342.59;4178415;28;20048;-58
2022/10/24 05:18:29;;;;;;;20.83;11.63;;;;;;;12.17;68.13;95355.78;4194323;28;20098;-59
2022/10/24 05:20:31;;;;;;;14.77;10.55;;;;;;;12.21;68.01;95349.25;4195725;28;20064;-59
2022/10/24 05:22:32;;;;;;;24.38;10.98;;;;;;;12.29;67.56;95353.75;4195780;28;20148;-58
2022/10/24 05:24:34;;;;;;;21.02;11.05;;;;;;;12.40;67.05;95344.78;4195702;28;20136;-58
2022/10/24 05:26:36;;;;;;;23.10;11.60;;;;;;;12.52;66.97;95350.59;4195099;28;20423;-58
2022/10/24 05:28:37;;;;;;;22.25;10.63;;;;;;;12.61;66.50;95355.75;4189465;28;20072;-59
2022/10/24 05:30:42;;;;;;;24.70;11.45;;;;;;;12.68;66.21;95354.16;4187612;28;20679;-61
2022/10/24 05:32:44;;;;;;;21.63;10.57;;;;;;;12.75;66.31;95343.00;4195355;28;20072;-58
2022/10/24 05:34:47;;;;;;;26.55;11.68;;;;;;;12.80;65.76;95346.84;4193682;28;20048;-58
2022/10/24 05:36:49;;;;;;;27.40;10.80;;;;;;;12.89;65.86;95350.31;4186589;28;20055;-62
2022/10/24 05:38:50;;;;;;;27.05;11.73;;;;;;;12.90;65.40;95350.16;4190580;28;20131;-58
2022/10/24 05:40:52;;;;;;;32.38;11.73;;;;;;;12.91;65.45;95345.72;4190146;28;20072;-60
2022/10/24 05:42:54;;;;;;;18.75;10.95;;;;;;;12.97;65.31;95354.78;4187259;28;20056;-59
2022/10/24 05:44:56;;;;;;;24.10;11.13;;;;;;;12.98;65.50;95353.81;4186984;28;20084;-58
2022/10/24 05:46:58;;;;;;;20.02;10.02;;;;;;;13.06;65.69;95359.94;4177651;28;20047;-60
2022/10/24 05:48:59;;;;;;;23.15;11.52;;;;;;;13.16;65.29;95359.78;4183609;28;20036;-59
2022/10/24 05:51:01;;;;;;;22.20;10.90;;;;;;;13.23;64.43;95360.81;4194239;28;20153;-59
2022/10/24 05:53:02;;;;;;;19.70;12.32;;;;;;;12.97;64.13;95362.66;4184029;28;20131;-59
2022/10/24 05:55:05;;;;;;;20.38;11.63;;;;;;;12.65;64.90;95369.44;4181911;28;20071;-59
2022/10/24 05:57:09;;;;;;;29.27;15.52;;;;;;;12.11;66.55;95379.22;4194143;28;20101;-57
2022/10/24 05:59:10;;;;;;;25.00;15.43;;;;;;;11.96;66.43;95374.50;4186977;28;20088;-63
2022/10/24 06:01:12;;;;;;;23.58;14.63;;;;;;;11.74;66.92;95383.59;4186029;28;20135;-63
2022/10/24 06:03:14;;;;;;;27.23;14.43;;;;;;;11.37;67.66;95388.97;4194912;28;20070;-62
2022/10/24 06:05:15;;;;;;;29.45;14.00;;;;;;;11.18;68.24;95388.09;4195109;28;20148;-66
2022/10/24 06:07:17;;;;;;;25.52;13.98;;;;;;;11.27;68.23;95391.63;4191054;28;20124;-66
2022/10/24 06:09:19;;;;;;;22.80;13.30;;;;;;;11.22;68.23;95393.88;4186842;28;20045;-63
2022/10/24 06:11:21;;;;;;;22.48;12.23;;;;;;;11.01;68.29;95391.47;4189073;28;20195;-62
2022/10/24 06:13:28;;;;;;;15.07;10.73;;;;;;;11.00;68.26;95388.03;4193506;28;20062;-67
2022/10/24 06:15:36;;;;;;;23.58;12.32;;;;;;;10.92;68.65;95390.56;4184950;28;20059;-63
2022/10/24 06:17:38;;;;;;;16.17;12.48;;;;;;;11.09;68.75;95388.16;4182010;28;20088;-65
2022/10/24 06:19:40;;;;;;;19.80;11.35;;;;;;;11.29;68.71;95381.81;4195572;28;20084;-65
2022/10/24 06:21:41;;;;;;;25.98;11.95;;;;;;;11.67;67.83;95379.94;4186683;28;20493;-65
2022/10/24 06:23:43;;;;;;;24.98;12.77;;;;;;;12.03;66.48;95378.16;4188822;28;20091;-65
2022/10/24 06:25:45;;;;;;;25.60;12.70;;;;;;;12.33;65.01;95376.13;4189688;28;20045;-64
2022/10/24 06:27:47;;;;;;;20.77;14.10;;;;;;;12.62;64.23;95386.31;4194425;28;20472;-67
2022/10/24 06:29:49;;;;;;;20.05;14.95;;;;;;;12.85;62.90;95388.44;4195649;28;20071;-67
2022/10/24 06:31:50;;;;;;;25.45;16.40;;;;;;;13.07;62.82;95385.25;4193575;28;20076;-66
2022/10/24 06:33:54;;;;;;;23.15;14.95;;;;;;;13.25;62.01;95384.31;4200560;28;20145;-65
2022/10/24 06:36:00;;;;;;;24.30;14.50;;;;;;;13.40;61.64;95388.06;4194031;28;20060;-67
2022/10/24 06:38:02;;;;;;;22.55;14.90;;;;;;;13.55;61.33;95382.16;4192720;28;20068;-61
2022/10/24 06:40:04;;;;;;;24.33;14.65;;;;;;;13.68;60.81;95387.78;4195310;28;20048;-63
2022/10/24 06:42:06;;;;;;;23.88;15.48;;;;;;;13.68;60.35;95393.03;4188075;28;20139;-64
2022/10/24 06:44:08;;;;;;;31.83;16.52;;;;;;;13.56;60.69;95392.53;4185666;28;20084;-64
2022/10/24 06:46:14;;;;;;;27.55;15.90;;;;;;;13.35;61.20;95394.78;4189601;28;20044;-66
2022/10/24 06:48:16;;;;;;;31.58;16.25;;;;;;;13.36;61.64;95394.63;4176341;28;20056;-64
2022/10/24 06:50:17;;;;;;;27.85;17.38;;;;;;;13.50;61.35;95401.88;4185254;28;20048;-64
2022/10/24 06:52:19;;;;;;;26.88;16.52;;;;;;;13.59;60.93;95404.53;4187520;28;20175;-65
2022/10/24 06:54:21;;;;;;;25.02;15.75;;;;;;;13.51;60.81;95411.44;4191247;28;20053;-63
2022/10/24 06:56:28;;;;;;;27.13;15.35;;;;;;;13.55;60.92;95408.47;4186159;28;20489;-63
2022/10/24 06:58:36;;;;;;;24.33;16.15;;;;;;;13.55;61.14;95414.59;4189982;28;20131;-64
2022/10/24 07:00:38;;;;;;;20.65;14.15;;;;;;;13.70;61.32;95409.50;4198605;28;20143;-63
2022/10/24 07:02:40;;;;;;;24.20;14.35;;;;;;;13.83;60.60;95406.41;4189119;28;20091;-65
2022/10/24 07:04:42;;;;;;;19.40;13.43;;;;;;;14.02;60.22;95405.28;4198671;28;20524;-66
2022/10/24 07:06:43;;;;;;;28.35;14.85;;;;;;;14.22;59.31;95406.66;4185040;28;20076;-64
2022/10/24 07:08:46;;;;;;;23.08;14.15;;;;;;;14.41;58.95;95397.59;4193807;28;20082;-64
2022/10/24 07:10:47;;;;;;;27.38;15.30;;;;;;;14.64;58.70;95404.84;4187976;28;20059;-66
2022/10/24 07:12:49;;;;;;;28.05;16.08;;;;;;;14.79;57.93;95402.34;4193531;28;20151;-64
2022/10/24 07:14:51;;;;;;;20.60;15.27;;;;;;;14.84;57.51;95408.78;4184388;28;20068;-60
2022/10/24 07:16:53;;;;;;;21.40;14.02;;;;;;;14.87;57.49;95402.34;4182178;28;20072;-58
2022/10/24 07:18:55;;;;;;;25.63;14.20;;;;;;;14.87;56.98;95405.78;4185713;28;20155;-61
2022/10/24 07:21:01;;;;;;;19.35;13.38;;;;;;;14.93;57.25;95399.84;4196790;28;20111;-64
2022/10/24 07:23:03;;;;;;;26.55;15.48;;;;;;;15.04;57.21;95398.66;4184833;28;20045;-63
2022/10/24 07:25:05;;;;;;;30.17;16.92;;;;;;;15.20;56.52;95394.31;4183112;28;20052;-63
2022/10/24 07:27:07;;;;;;;19.13;11.93;;;;;;;15.11;56.51;95399.63;4194160;28;20064;-65
2022/10/24 07:29:09;;;;;;;22.50;14.52;;;;;;;15.10;56.74;95398.00;4189702;28;20080;-63
2022/10/24 07:31:17;;;;;;;22.58;13.70;;;;;;;15.01;57.12;95400.81;4198570;28;20044;-65
2022/10/24 07:33:18;;;;;;;23.95;13.38;;;;;;;14.87;57.64;95391.78;4185295;28;21613;-65
2022/10/24 07:35:20;;;;;;;22.80;13.27;;;;;;;15.09;57.62;95398.97;4187740;28;20143;-65
2022/10/24 07:37:22;;;;;;;17.38;11.48;;;;;;;15.28;57.57;95392.47;4193627;28;20360;-65
2022/10/24 07:39:23;;;;;;;20.00;11.25;;;;;;;15.49;57.22;95394.53;4183126;28;20079;-66
2022/10/24 07:41:27;;;;;;;21.05;11.55;;;;;;;15.56;55.95;95399.94;4180417;28;20736;-63
2022/10/24 07:43:29;;;;;;;16.63;11.02;;;;;;;15.40;56.12;95400.00;4181015;28;20470;-66
2022/10/24 07:45:31;;;;;;;18.45;10.48;;;;;;;15.47;56.78;95407.09;4182346;28;20152;-63
2022/10/24 07:47:33;;;;;;;18.67;10.25;;;;;;;15.49;56.27;95405.09;4189479;28;20477;-63
2022/10/24 07:49:35;;;;;;;17.90;9.23;;;;;;;15.44;56.18;95404.78;4180983;28;20071;-64
2022/10/24 07:51:36;;;;;;;14.63;8.80;;;;;;;15.35;56.23;95392.59;4181021;28;20092;-64
2022/10/24 07:53:39;;;;;;;18.55;9.60;;;;;;;15.26;56.97;95399.72;4180746;28;20080;-64
2022/10/24 07:55:42;;;;;;;12.77;9.63;;;;;;;15.50;56.52;95390.06;4181673;28;20057;-64
2022/10/24 07:57:44;;;;;;;17.23;10.98;;;;;;;15.43;56.63;95397.84;4186252;28;20068;-63
2022/10/24 07:59:46;;;;;;;20.77;11.55;;;;;;;15.52;56.72;95394.19;4197022;28;20059;-63
2022/10/24 08:01:48;;;;;;;17.10;11.07;;;;;;;15.58;56.61;95390.03;4195303;28;20060;-64
2022/10/24 08:03:50;;;;;;;20.33;10.98;;;;;;;15.81;56.37;95390.13;4196483;28;20105;-67
2022/10/24 08:05:55;;;;;;;20.90;10.38;;;;;;;16.07;56.01;95386.31;4195556;28;20068;-63
2022/10/24 08:07:57;;;;;;;17.83;9.68;;;;;;;16.31;54.69;95388.75;4197099;28;20055;-67
2022/10/24 08:10:19;;;;;;;17.50;9.57;;;;;;;16.31;54.20;95380.81;4181879;28;20132;-66
2022/10/24 08:12:21;;;;;;;15.43;9.63;;;;;;;16.40;54.29;95383.41;4195720;28;20052;-65
2022/10/24 08:14:22;;;;;;;22.70;9.15;;;;;;;16.56;54.25;95377.97;4197156;28;20136;-67
2022/10/24 08:16:24;;;;;;;16.10;9.98;;;;;;;16.74;53.71;95378.47;4190644;28;20135;-64
2022/10/24 08:18:26;;;;;;;16.25;8.85;;;;;;;16.68;52.99;95376.53;4192328;28;20538;-64
2022/10/24 08:20:31;;;;;;;15.23;9.43;;;;;;;16.53;53.33;95376.50;4180151;28;20052;-62
2022/10/24 08:22:33;;;;;;;16.95;9.45;;;;;;;16.68;53.46;95379.19;4181426;28;20430;-65
2022/10/24 08:24:35;;;;;;;15.07;10.00;;;;;;;16.70;53.64;95377.19;4192909;28;20086;-65
2022/10/24 08:26:39;;;;;;;24.20;10.50;;;;;;;16.90;53.42;95380.13;4194784;28;20421;-66
2022/10/24 08:28:41;;;;;;;21.73;12.43;;;;;;;16.69;53.24;95370.25;4188395;28;20574;-63
2022/10/24 08:30:43;;;;;;;23.42;11.82;;;;;;;16.83;53.57;95373.94;4189145;28;20438;-68
2022/10/24 08:32:45;;;;;;;22.67;12.48;;;;;;;17.07;53.04;95377.31;4196452;28;20048;-65
2022/10/24 08:34:47;;;;;;;23.48;12.27;;;;;;;17.26;52.13;95371.47;4195227;28;20128;-65
2022/10/24 08:36:49;;;;;;;23.42;13.02;;;;;;;17.19;52.15;95366.09;4189811;28;20044;-64
2022/10/24 08:38:51;;;;;;;20.27;12.80;;;;;;;17.11;51.99;95366.19;4185704;28;20131;-64
2022/10/24 08:40:53;;;;;;;23.02;13.13;;;;;;;16.89;52.48;95361.81;4191263;28;20061;-64
2022/10/24 08:42:54;;;;;;;25.55;14.98;;;;;;;16.70;53.17;95361.31;4183278;28;20083;-65
2022/10/24 08:44:56;;;;;;;25.45;14.60;;;;;;;16.58;53.58;95362.72;4188470;28;20041;-65
2022/10/24 08:47:04;;;;;;;24.35;15.70;;;;;;;16.62;53.74;95360.56;4185326;28;20127;-65
2022/10/24 08:49:14;;;;;;;23.88;14.25;;;;;;;16.61;53.77;95353.63;4187910;28;20055;-67
2022/10/24 08:51:24;;;;;;;20.75;13.75;;;;;;;16.78;53.24;95348.00;4184553;28;20131;-67
2022/10/24 08:53:30;;;;;;;33.65;15.15;;;;;;;16.98;53.09;95348.28;4192555;28;20075;-65
2022/10/24 08:55:38;;;;;;;28.77;15.07;;;;;;;17.27;52.95;95340.50;4177776;28;20150;-65
2022/10/24 08:57:59;;;;;;;19.40;13.85;;;;;;;17.61;51.93;95340.72;4186455;28;20045;-65
2022/10/24 09:00:23;;;;;;;22.45;14.02;;;;;;;17.59;51.98;95337.47;4189435;28;20060;-64
2022/10/24 09:02:27;;;;;;;28.33;14.55;;;;;;;17.85;51.72;95337.94;4192242;28;20075;-63
2022/10/24 09:04:35;;;;;;;26.52;14.20;;;;;;;18.11;51.15;95337.38;4194725;28;20049;-63
2022/10/24 09:06:37;;;;;;;29.45;14.95;;;;;;;18.29;50.38;95335.09;4194768;28;20052;-64
2022/10/24 09:08:51;;;;;;;24.90;14.50;;;;;;;18.49;49.80;95337.91;4195627;28;20066;-64
2022/10/24 09:10:57;;;;;;;25.42;15.10;;;;;;;18.23;50.07;95340.34;4189224;28;20208;-64
2022/10/24 09:12:58;;;;;;;24.75;14.40;;;;;;;18.17;50.32;95336.63;4178484;28;20045;-65
2022/10/24 09:15:00;;;;;;;26.17;13.85;;;;;;;17.87;50.71;95331.44;4192536;28;20044;-64
2022/10/24 09:17:22;;;;;;;21.33;14.45;;;;;;;17.62;51.76;95333.63;4190110;28;20068;-65
2022/10/24 09:19:25;;;;;;;23.73;13.60;;;;;;;17.60;51.66;95335.63;4195840;28;20116;-66
2022/10/24 09:21:27;;;;;;;23.45;13.80;;;;;;;17.71;51.52;95329.84;4193455;28;20076;-66
2022/10/24 09:23:31;;;;;;;26.90;14.32;;;;;;;17.81;51.52;95327.69;4183216;28;20080;-69
2022/10/24 09:25:35;;;;;;;24.02;14.20;;;;;;;17.73;51.60;95324.34;4194325;28;20152;-64
2022/10/24 09:27:38;;;;;;;20.17;14.40;;;;;;;17.91;51.10;95338.00;4194421;28;20059;-65
2022/10/24 09:29:40;;;;;;;;;;;;;;;18.00;50.93;95331.59;4194069;28;20124;-66
2022/10/24 09:31:42;;;;;;;22.20;12.75;;;;;;;17.97;51.00;95326.66;4193101;28;19932;-65